Burgtor — V2OR7 — position and weather

sailwx.info

Track history (hours):
 
Tides and Currents Weather Stations Pressure Air Temp Water Temp Dewpoint Dewpoint Depression Visibility Wind Speed Wind Dir Waves Ship Positions

Burgtor

Last reported at 2015-Feb-27 06:31 UTC. Time now 2015-Feb-27 07:35 UTC.
Position N 53°44' W 000°16'.

Length 87 m; draft 4.8 m.

Type: Cargo ship. MMSI: 304665000.

Date/timePositionNaut miles runAvg speedWind from/ knotsBaromVisibWave heightAir tempDewpointWater temp
2015-Feb-27 06:31N 53°44' W 000°16'0 0.0
2015-Feb-27 05:31N 53°44' W 000°16'0 0.0
2015-Feb-27 04:31N 53°44' W 000°16'0 0.1
2015-Feb-27 03:31N 53°45' W 000°16'1 0.9
2015-Feb-27 02:33N 53°44' W 000°16'1010.0
2015-Feb-27 01:33N 53°41' W 000°32'  
2015-Feb-23 21:11N 53°42' W 000°40'5 7.9
2015-Feb-23 20:30N 53°41' W 000°31'6 6.1
2015-Feb-23 19:33N 53°43' W 000°22'7 6.9
2015-Feb-23 18:34N 53°40' W 000°11'1010.4
2015-Feb-23 17:33N 53°35' E 000°04'8 8.1
2015-Feb-23 16:33N 53°33' E 000°17'5 5.0
2015-Feb-23 15:33N 53°35' E 000°25'1 0.8
2015-Feb-23 14:33N 53°36' E 000°26'0 0.0
2015-Feb-23 13:33N 53°36' E 000°26'0 0.0
2015-Feb-23 12:34N 53°36' E 000°26'0 0.0
2015-Feb-23 11:33N 53°36' E 000°26'0 0.0
2015-Feb-23 10:33N 53°36' E 000°26'0 0.1
2015-Feb-23 09:33N 53°36' E 000°26'1 1.5
2015-Feb-23 08:33N 53°35' E 000°27'6 6.1
2015-Feb-23 07:32N 53°29' E 000°32'40 8.1
2015-Feb-23 02:33N 52°60' E 001°18'10 9.8
2015-Feb-23 01:33N 52°55' E 001°32'8 8.2
2015-Feb-23 00:33N 52°50' E 001°43'7 6.7
2015-Feb-22 23:33N 52°46' E 001°52'5 5.1
2015-Feb-22 22:33N 52°41' E 001°55'6 6.1
2015-Feb-22 21:33N 52°35' E 001°54'8 7.5
2015-Feb-22 20:33N 52°27' E 001°53'4210.5
2015-Feb-22 16:33N 51°45' E 001°49'1110.9
2015-Feb-22 15:33N 51°34' E 001°48'1111.3
2015-Feb-22 14:33N 51°23' E 001°45'1211.6
2015-Feb-22 13:33N 51°12' E 001°39'9 8.6
2015-Feb-22 12:33N 51°04' E 001°37'  
Track history (hours):
 
Tides and Currents Weather Stations Pressure Air Temp Water Temp Dewpoint Dewpoint Depression Visibility Wind Speed Wind Dir Waves Ship Positions

Burgtor

Last reported at 2015-Feb-27 06:31 UTC. Time now 2015-Feb-27 07:35 UTC.
Position N 53°44' W 000°16'.

Length 87 m; draft 4.8 m.

Type: Cargo ship. MMSI: 304665000.

Date/timePositionNaut miles runAvg speedWind from/ knotsBaromVisibWave heightAir tempDewpointWater temp
2015-Feb-27 06:31N 53°44' W 000°16'0 0.0
2015-Feb-27 05:31N 53°44' W 000°16'0 0.0
2015-Feb-27 04:31N 53°44' W 000°16'0 0.1
2015-Feb-27 03:31N 53°45' W 000°16'1 0.9
2015-Feb-27 02:33N 53°44' W 000°16'1010.0
2015-Feb-27 01:33N 53°41' W 000°32'  
2015-Feb-23 21:11N 53°42' W 000°40'5 7.9
2015-Feb-23 20:30N 53°41' W 000°31'6 6.1
2015-Feb-23 19:33N 53°43' W 000°22'7 6.9
2015-Feb-23 18:34N 53°40' W 000°11'1010.4
2015-Feb-23 17:33N 53°35' E 000°04'8 8.1
2015-Feb-23 16:33N 53°33' E 000°17'5 5.0
2015-Feb-23 15:33N 53°35' E 000°25'1 0.8
2015-Feb-23 14:33N 53°36' E 000°26'0 0.0
2015-Feb-23 13:33N 53°36' E 000°26'0 0.0
2015-Feb-23 12:34N 53°36' E 000°26'0 0.0
2015-Feb-23 11:33N 53°36' E 000°26'0 0.0
2015-Feb-23 10:33N 53°36' E 000°26'0 0.1
2015-Feb-23 09:33N 53°36' E 000°26'1 1.5
2015-Feb-23 08:33N 53°35' E 000°27'6 6.1
2015-Feb-23 07:32N 53°29' E 000°32'40 8.1
2015-Feb-23 02:33N 52°60' E 001°18'10 9.8
2015-Feb-23 01:33N 52°55' E 001°32'8 8.2
2015-Feb-23 00:33N 52°50' E 001°43'7 6.7
2015-Feb-22 23:33N 52°46' E 001°52'5 5.1
2015-Feb-22 22:33N 52°41' E 001°55'6 6.1
2015-Feb-22 21:33N 52°35' E 001°54'8 7.5
2015-Feb-22 20:33N 52°27' E 001°53'4210.5
2015-Feb-22 16:33N 51°45' E 001°49'1110.9
2015-Feb-22 15:33N 51°34' E 001°48'1111.3
2015-Feb-22 14:33N 51°23' E 001°45'1211.6
2015-Feb-22 13:33N 51°12' E 001°39'9 8.6
2015-Feb-22 12:33N 51°04' E 001°37'  

Dump ship's entire track history